sensor_id;sensor_type;location;lat;lon;timestamp;temperature;humidity
20712;DHT22;10517;50.742;4.224;2022-08-11T00:00:00;22.40;89.90
20712;DHT22;10517;50.742;4.224;2022-08-11T00:02:38;22.30;90.60
20712;DHT22;10517;50.742;4.224;2022-08-11T00:05:10;22.30;90.80
20712;DHT22;10517;50.742;4.224;2022-08-11T00:07:47;22.20;91.20
20712;DHT22;10517;50.742;4.224;2022-08-11T00:10:17;22.10;91.60
20712;DHT22;10517;50.742;4.224;2022-08-11T00:12:43;22.10;92.20
20712;DHT22;10517;50.742;4.224;2022-08-11T00:15:14;22.10;92.50
20712;DHT22;10517;50.742;4.224;2022-08-11T00:17:41;22.10;92.60
20712;DHT22;10517;50.742;4.224;2022-08-11T00:20:12;22.10;93.00
20712;DHT22;10517;50.742;4.224;2022-08-11T00:22:40;22.10;93.40
20712;DHT22;10517;50.742;4.224;2022-08-11T00:25:10;22.00;93.90
20712;DHT22;10517;50.742;4.224;2022-08-11T00:27:39;22.00;94.40
20712;DHT22;10517;50.742;4.224;2022-08-11T00:30:06;22.00;94.40
20712;DHT22;10517;50.742;4.224;2022-08-11T00:32:34;21.90;94.80
20712;DHT22;10517;50.742;4.224;2022-08-11T00:35:02;21.90;95.20
20712;DHT22;10517;50.742;4.224;2022-08-11T00:37:28;21.80;96.20
20712;DHT22;10517;50.742;4.224;2022-08-11T00:39:55;21.70;96.70
20712;DHT22;10517;50.742;4.224;2022-08-11T00:45:42;21.50;98.90
20712;DHT22;10517;50.742;4.224;2022-08-11T00:48:18;21.40;99.90
20712;DHT22;10517;50.742;4.224;2022-08-11T01:06:57;21.00;99.90
20712;DHT22;10517;50.742;4.224;2022-08-11T01:12:48;21.00;99.90
20712;DHT22;10517;50.742;4.224;2022-08-11T01:27:21;20.70;99.90
20712;DHT22;10517;50.742;4.224;2022-08-11T01:30:11;20.60;99.90
20712;DHT22;10517;50.742;4.224;2022-08-11T01:56:28;20.10;99.90
20712;DHT22;10517;50.742;4.224;2022-08-11T02:02:02;20.00;99.90
20712;DHT22;10517;50.742;4.224;2022-08-11T02:04:46;19.90;99.90
20712;DHT22;10517;50.742;4.224;2022-08-11T02:07:54;19.90;99.90
20712;DHT22;10517;50.742;4.224;2022-08-11T02:13:21;19.70;99.90
20712;DHT22;10517;50.742;4.224;2022-08-11T02:16:25;19.60;99.90
20712;DHT22;10517;50.742;4.224;2022-08-11T02:22:04;19.40;99.90
20712;DHT22;10517;50.742;4.224;2022-08-11T02:25:06;19.40;99.90
20712;DHT22;10517;50.742;4.224;2022-08-11T02:30:08;19.20;99.90
20712;DHT22;10517;50.742;4.224;2022-08-11T02:32:49;19.10;99.90
20712;DHT22;10517;50.742;4.224;2022-08-11T02:38:30;19.00;99.90
20712;DHT22;10517;50.742;4.224;2022-08-11T02:41:02;18.90;99.90
20712;DHT22;10517;50.742;4.224;2022-08-11T02:44:10;18.90;99.90
20712;DHT22;10517;50.742;4.224;2022-08-11T02:47:31;18.80;99.90
20712;DHT22;10517;50.742;4.224;2022-08-11T02:52:26;18.60;99.90
20712;DHT22;10517;50.742;4.224;2022-08-11T02:57:42;18.60;99.90
20712;DHT22;10517;50.742;4.224;2022-08-11T03:00:11;18.60;99.90
20712;DHT22;10517;50.742;4.224;2022-08-11T03:08:39;18.40;99.90
20712;DHT22;10517;50.742;4.224;2022-08-11T03:11:44;18.30;99.90
20712;DHT22;10517;50.742;4.224;2022-08-11T03:17:41;18.20;99.90
20712;DHT22;10517;50.742;4.224;2022-08-11T03:20:22;18.20;99.90
20712;DHT22;10517;50.742;4.224;2022-08-11T03:28:35;18.00;99.90
20712;DHT22;10517;50.742;4.224;2022-08-11T03:31:24;17.90;99.90
20712;DHT22;10517;50.742;4.224;2022-08-11T03:34:00;18.00;99.90
20712;DHT22;10517;50.742;4.224;2022-08-11T03:50:43;17.70;99.90
20712;DHT22;10517;50.742;4.224;2022-08-11T04:11:16;17.40;99.90
20712;DHT22;10517;50.742;4.224;2022-08-11T04:18:17;17.30;99.90
20712;DHT22;10517;50.742;4.224;2022-08-11T04:20:37;17.30;99.90
20712;DHT22;10517;50.742;4.224;2022-08-11T04:26:15;17.20;99.90
20712;DHT22;10517;50.742;4.224;2022-08-11T04:31:59;17.20;99.90
20712;DHT22;10517;50.742;4.224;2022-08-11T04:37:10;17.10;99.90
20712;DHT22;10517;50.742;4.224;2022-08-11T04:43:08;17.30;99.90
20712;DHT22;10517;50.742;4.224;2022-08-11T05:04:20;17.30;99.90
20712;DHT22;10517;50.742;4.224;2022-08-11T05:13:03;17.30;99.90
20712;DHT22;10517;50.742;4.224;2022-08-11T05:15:56;17.50;99.90
20712;DHT22;10517;50.742;4.224;2022-08-11T05:18:49;17.50;99.90
20712;DHT22;10517;50.742;4.224;2022-08-11T05:21:35;17.50;99.90
20712;DHT22;10517;50.742;4.224;2022-08-11T05:27:18;17.90;99.90
20712;DHT22;10517;50.742;4.224;2022-08-11T05:30:06;18.00;99.90
20712;DHT22;10517;50.742;4.224;2022-08-11T05:33:13;18.20;99.90
20712;DHT22;10517;50.742;4.224;2022-08-11T05:36:06;18.30;99.90
20712;DHT22;10517;50.742;4.224;2022-08-11T05:38:34;18.30;99.90
20712;DHT22;10517;50.742;4.224;2022-08-11T05:41:24;18.30;99.90
20712;DHT22;10517;50.742;4.224;2022-08-11T05:44:10;18.40;99.90
20712;DHT22;10517;50.742;4.224;2022-08-11T05:47:01;18.50;99.90
20712;DHT22;10517;50.742;4.224;2022-08-11T05:49:49;18.70;99.90
20712;DHT22;10517;50.742;4.224;2022-08-11T05:52:34;18.80;99.90
20712;DHT22;10517;50.742;4.224;2022-08-11T05:55:19;18.80;99.90
20712;DHT22;10517;50.742;4.224;2022-08-11T05:58:05;18.90;99.90
20712;DHT22;10517;50.742;4.224;2022-08-11T06:00:40;19.00;99.90
20712;DHT22;10517;50.742;4.224;2022-08-11T06:03:07;19.10;99.90
20712;DHT22;10517;50.742;4.224;2022-08-11T06:05:39;19.20;99.90
20712;DHT22;10517;50.742;4.224;2022-08-11T06:08:10;19.30;99.90
20712;DHT22;10517;50.742;4.224;2022-08-11T06:10:39;19.40;99.90
20712;DHT22;10517;50.742;4.224;2022-08-11T06:13:07;19.50;99.90
20712;DHT22;10517;50.742;4.224;2022-08-11T06:15:42;19.50;99.90
20712;DHT22;10517;50.742;4.224;2022-08-11T06:18:09;19.60;99.90
20712;DHT22;10517;50.742;4.224;2022-08-11T06:20:48;19.80;99.90
20712;DHT22;10517;50.742;4.224;2022-08-11T06:23:15;19.90;99.90
20712;DHT22;10517;50.742;4.224;2022-08-11T06:25:45;19.90;99.90
20712;DHT22;10517;50.742;4.224;2022-08-11T06:28:12;19.90;99.90
20712;DHT22;10517;50.742;4.224;2022-08-11T06:30:41;20.00;99.90
20712;DHT22;10517;50.742;4.224;2022-08-11T06:33:12;20.10;99.90
20712;DHT22;10517;50.742;4.224;2022-08-11T06:36:09;20.20;99.90
20712;DHT22;10517;50.742;4.224;2022-08-11T06:46:47;20.70;99.90
20712;DHT22;10517;50.742;4.224;2022-08-11T06:49:20;20.80;99.90
20712;DHT22;10517;50.742;4.224;2022-08-11T06:52:07;20.90;99.90
20712;DHT22;10517;50.742;4.224;2022-08-11T06:54:36;21.00;99.90
20712;DHT22;10517;50.742;4.224;2022-08-11T06:57:06;21.00;99.90
20712;DHT22;10517;50.742;4.224;2022-08-11T06:59:52;21.10;99.90
20712;DHT22;10517;50.742;4.224;2022-08-11T07:02:44;21.20;99.90
20712;DHT22;10517;50.742;4.224;2022-08-11T07:08:24;21.40;99.90
20712;DHT22;10517;50.742;4.224;2022-08-11T07:14:25;21.80;99.90
20712;DHT22;10517;50.742;4.224;2022-08-11T07:17:15;21.90;99.90
20712;DHT22;10517;50.742;4.224;2022-08-11T07:19:45;21.90;99.90
20712;DHT22;10517;50.742;4.224;2022-08-11T07:22:31;22.00;99.90
20712;DHT22;10517;50.742;4.224;2022-08-11T07:25:16;22.10;99.90
20712;DHT22;10517;50.742;4.224;2022-08-11T07:28:04;22.20;99.90
20712;DHT22;10517;50.742;4.224;2022-08-11T07:30:52;22.30;99.90
20712;DHT22;10517;50.742;4.224;2022-08-11T07:33:28;22.30;99.90
20712;DHT22;10517;50.742;4.224;2022-08-11T07:35:56;22.50;99.90
20712;DHT22;10517;50.742;4.224;2022-08-11T07:38:31;22.70;99.90
20712;DHT22;10517;50.742;4.224;2022-08-11T07:41:13;22.80;99.90
20712;DHT22;10517;50.742;4.224;2022-08-11T07:43:41;22.90;99.90
20712;DHT22;10517;50.742;4.224;2022-08-11T07:46:07;23.00;99.90
20712;DHT22;10517;50.742;4.224;2022-08-11T07:48:54;23.30;99.90
20712;DHT22;10517;50.742;4.224;2022-08-11T07:51:40;23.50;99.90
20712;DHT22;10517;50.742;4.224;2022-08-11T07:54:26;23.70;99.90
20712;DHT22;10517;50.742;4.224;2022-08-11T07:56:53;23.90;99.90
20712;DHT22;10517;50.742;4.224;2022-08-11T07:59:19;24.10;99.90
20712;DHT22;10517;50.742;4.224;2022-08-11T08:02:04;24.10;99.90
20712;DHT22;10517;50.742;4.224;2022-08-11T08:04:48;24.10;99.90
20712;DHT22;10517;50.742;4.224;2022-08-11T08:07:33;24.30;99.90
20712;DHT22;10517;50.742;4.224;2022-08-11T08:10:20;24.50;99.90
20712;DHT22;10517;50.742;4.224;2022-08-11T08:13:06;24.40;99.90
20712;DHT22;10517;50.742;4.224;2022-08-11T08:15:52;24.30;99.90
20712;DHT22;10517;50.742;4.224;2022-08-11T08:18:37;24.40;99.90
20712;DHT22;10517;50.742;4.224;2022-08-11T08:21:05;24.40;99.90
20712;DHT22;10517;50.742;4.224;2022-08-11T08:23:45;24.80;99.90
20712;DHT22;10517;50.742;4.224;2022-08-11T08:26:13;25.00;99.90
20712;DHT22;10517;50.742;4.224;2022-08-11T08:29:01;25.10;99.90
20712;DHT22;10517;50.742;4.224;2022-08-11T08:31:59;25.00;99.90
20712;DHT22;10517;50.742;4.224;2022-08-11T08:34:26;25.20;99.90
20712;DHT22;10517;50.742;4.224;2022-08-11T08:36:52;25.40;99.90
20712;DHT22;10517;50.742;4.224;2022-08-11T08:39:19;25.50;99.90
20712;DHT22;10517;50.742;4.224;2022-08-11T08:41:48;25.70;99.90
20712;DHT22;10517;50.742;4.224;2022-08-11T08:44:17;25.60;99.90
20712;DHT22;10517;50.742;4.224;2022-08-11T08:46:46;25.70;99.90
20712;DHT22;10517;50.742;4.224;2022-08-11T08:49:16;25.60;99.90
20712;DHT22;10517;50.742;4.224;2022-08-11T08:51:44;25.50;99.90
20712;DHT22;10517;50.742;4.224;2022-08-11T08:54:16;25.50;99.90
20712;DHT22;10517;50.742;4.224;2022-08-11T08:56:44;25.60;99.90
20712;DHT22;10517;50.742;4.224;2022-08-11T08:59:12;26.00;99.90
20712;DHT22;10517;50.742;4.224;2022-08-11T09:01:48;26.00;99.80
20712;DHT22;10517;50.742;4.224;2022-08-11T09:04:15;26.00;99.90
20712;DHT22;10517;50.742;4.224;2022-08-11T09:06:43;26.10;99.90
20712;DHT22;10517;50.742;4.224;2022-08-11T09:09:09;26.10;99.90
20712;DHT22;10517;50.742;4.224;2022-08-11T09:11:37;26.20;99.90
20712;DHT22;10517;50.742;4.224;2022-08-11T09:14:25;26.20;98.50
20712;DHT22;10517;50.742;4.224;2022-08-11T09:17:14;26.20;97.60
20712;DHT22;10517;50.742;4.224;2022-08-11T09:19:42;26.30;96.50
20712;DHT22;10517;50.742;4.224;2022-08-11T09:22:08;26.40;96.90
20712;DHT22;10517;50.742;4.224;2022-08-11T09:24:53;26.50;95.90
20712;DHT22;10517;50.742;4.224;2022-08-11T09:27:38;26.60;96.40
20712;DHT22;10517;50.742;4.224;2022-08-11T09:30:05;27.00;97.00
20712;DHT22;10517;50.742;4.224;2022-08-11T09:32:32;27.00;95.90
20712;DHT22;10517;50.742;4.224;2022-08-11T09:35:00;27.00;95.40
20712;DHT22;10517;50.742;4.224;2022-08-11T09:37:27;27.10;95.10
20712;DHT22;10517;50.742;4.224;2022-08-11T09:40:14;27.20;94.50
20712;DHT22;10517;50.742;4.224;2022-08-11T09:42:56;27.10;93.80
20712;DHT22;10517;50.742;4.224;2022-08-11T09:45:44;27.20;93.70
20712;DHT22;10517;50.742;4.224;2022-08-11T09:48:10;27.30;93.60
20712;DHT22;10517;50.742;4.224;2022-08-11T09:50:36;27.30;92.80
20712;DHT22;10517;50.742;4.224;2022-08-11T09:53:04;27.40;93.20
20712;DHT22;10517;50.742;4.224;2022-08-11T09:55:32;27.50;91.90
20712;DHT22;10517;50.742;4.224;2022-08-11T09:57:59;27.50;92.10
20712;DHT22;10517;50.742;4.224;2022-08-11T10:00:46;27.60;92.00
20712;DHT22;10517;50.742;4.224;2022-08-11T10:03:21;27.90;90.60
20712;DHT22;10517;50.742;4.224;2022-08-11T10:05:50;27.80;90.60
20712;DHT22;10517;50.742;4.224;2022-08-11T10:08:38;27.90;90.10
20712;DHT22;10517;50.742;4.224;2022-08-11T10:11:05;28.00;90.20
20712;DHT22;10517;50.742;4.224;2022-08-11T10:13:34;28.00;89.60
20712;DHT22;10517;50.742;4.224;2022-08-11T10:16:26;28.10;88.40
20712;DHT22;10517;50.742;4.224;2022-08-11T10:18:54;28.10;88.60
20712;DHT22;10517;50.742;4.224;2022-08-11T10:21:31;28.10;89.20
20712;DHT22;10517;50.742;4.224;2022-08-11T10:24:00;28.20;87.70
20712;DHT22;10517;50.742;4.224;2022-08-11T10:26:47;28.30;87.40
20712;DHT22;10517;50.742;4.224;2022-08-11T10:29:21;28.40;88.90
20712;DHT22;10517;50.742;4.224;2022-08-11T10:32:07;28.50;87.30
20712;DHT22;10517;50.742;4.224;2022-08-11T10:34:52;28.50;86.40
20712;DHT22;10517;50.742;4.224;2022-08-11T10:37:21;28.60;85.60
20712;DHT22;10517;50.742;4.224;2022-08-11T10:39:48;28.80;86.40
20712;DHT22;10517;50.742;4.224;2022-08-11T10:42:15;28.80;83.50
20712;DHT22;10517;50.742;4.224;2022-08-11T10:45:03;28.90;85.10
20712;DHT22;10517;50.742;4.224;2022-08-11T10:47:29;28.90;82.30
20712;DHT22;10517;50.742;4.224;2022-08-11T10:50:09;29.00;83.30
20712;DHT22;10517;50.742;4.224;2022-08-11T10:52:58;29.20;83.60
20712;DHT22;10517;50.742;4.224;2022-08-11T10:55:44;29.30;81.70
20712;DHT22;10517;50.742;4.224;2022-08-11T10:58:29;29.70;81.20
20712;DHT22;10517;50.742;4.224;2022-08-11T11:01:27;30.00;79.80
20712;DHT22;10517;50.742;4.224;2022-08-11T11:04:00;30.10;81.20
20712;DHT22;10517;50.742;4.224;2022-08-11T11:12:18;30.10;77.40
20712;DHT22;10517;50.742;4.224;2022-08-11T11:15:05;30.30;78.20
20712;DHT22;10517;50.742;4.224;2022-08-11T11:20:41;30.30;78.60
20712;DHT22;10517;50.742;4.224;2022-08-11T11:23:19;30.70;76.20
20712;DHT22;10517;50.742;4.224;2022-08-11T11:26:18;30.70;75.80
20712;DHT22;10517;50.742;4.224;2022-08-11T11:37:31;31.20;73.10
20712;DHT22;10517;50.742;4.224;2022-08-11T11:39:57;31.50;73.00
20712;DHT22;10517;50.742;4.224;2022-08-11T11:42:24;31.60;72.20
20712;DHT22;10517;50.742;4.224;2022-08-11T11:44:50;31.80;72.50
20712;DHT22;10517;50.742;4.224;2022-08-11T11:47:16;32.20;73.50
20712;DHT22;10517;50.742;4.224;2022-08-11T11:49:45;32.50;70.50
20712;DHT22;10517;50.742;4.224;2022-08-11T11:52:17;32.20;69.50
20712;DHT22;10517;50.742;4.224;2022-08-11T11:54:45;32.30;68.80
20712;DHT22;10517;50.742;4.224;2022-08-11T11:57:16;32.30;70.30
20712;DHT22;10517;50.742;4.224;2022-08-11T12:00:03;32.30;69.00
20712;DHT22;10517;50.742;4.224;2022-08-11T12:02:48;31.80;68.30
20712;DHT22;10517;50.742;4.224;2022-08-11T12:05:15;31.50;68.80
20712;DHT22;10517;50.742;4.224;2022-08-11T12:07:41;31.90;69.80
20712;DHT22;10517;50.742;4.224;2022-08-11T12:10:26;32.30;68.50
20712;DHT22;10517;50.742;4.224;2022-08-11T12:12:52;32.60;67.40
20712;DHT22;10517;50.742;4.224;2022-08-11T12:15:37;32.90;66.20
20712;DHT22;10517;50.742;4.224;2022-08-11T12:18:03;33.20;66.40
20712;DHT22;10517;50.742;4.224;2022-08-11T12:20:29;32.60;63.90
20712;DHT22;10517;50.742;4.224;2022-08-11T12:22:55;32.50;64.50
20712;DHT22;10517;50.742;4.224;2022-08-11T12:25:42;32.80;63.70
20712;DHT22;10517;50.742;4.224;2022-08-11T12:28:27;33.00;64.30
20712;DHT22;10517;50.742;4.224;2022-08-11T12:30:53;33.20;66.80
20712;DHT22;10517;50.742;4.224;2022-08-11T12:33:20;33.50;64.30
20712;DHT22;10517;50.742;4.224;2022-08-11T12:35:47;33.80;63.70
20712;DHT22;10517;50.742;4.224;2022-08-11T12:38:18;33.80;63.60
20712;DHT22;10517;50.742;4.224;2022-08-11T12:40:46;33.60;63.50
20712;DHT22;10517;50.742;4.224;2022-08-11T12:43:31;33.70;65.60
20712;DHT22;10517;50.742;4.224;2022-08-11T12:46:19;33.70;63.00
20712;DHT22;10517;50.742;4.224;2022-08-11T12:48:49;33.50;63.00
20712;DHT22;10517;50.742;4.224;2022-08-11T12:51:37;33.50;62.90
20712;DHT22;10517;50.742;4.224;2022-08-11T12:54:27;33.50;61.70
20712;DHT22;10517;50.742;4.224;2022-08-11T12:56:59;33.20;63.00
20712;DHT22;10517;50.742;4.224;2022-08-11T12:59:44;32.90;62.10
20712;DHT22;10517;50.742;4.224;2022-08-11T13:02:29;32.80;63.50
20712;DHT22;10517;50.742;4.224;2022-08-11T13:05:14;32.80;62.90
20712;DHT22;10517;50.742;4.224;2022-08-11T13:07:44;33.30;63.50
20712;DHT22;10517;50.742;4.224;2022-08-11T13:10:12;34.00;61.00
20712;DHT22;10517;50.742;4.224;2022-08-11T13:12:39;34.80;60.50
20712;DHT22;10517;50.742;4.224;2022-08-11T13:15:18;35.50;59.40
20712;DHT22;10517;50.742;4.224;2022-08-11T13:17:45;36.70;59.10
20712;DHT22;10517;50.742;4.224;2022-08-11T13:20:15;36.80;55.80
20712;DHT22;10517;50.742;4.224;2022-08-11T13:22:42;36.90;56.30
20712;DHT22;10517;50.742;4.224;2022-08-11T13:25:12;38.20;54.70
20712;DHT22;10517;50.742;4.224;2022-08-11T13:27:41;38.40;55.20
20712;DHT22;10517;50.742;4.224;2022-08-11T13:30:08;40.30;52.60
20712;DHT22;10517;50.742;4.224;2022-08-11T13:32:52;41.10;50.00
20712;DHT22;10517;50.742;4.224;2022-08-11T13:35:19;42.00;48.90
20712;DHT22;10517;50.742;4.224;2022-08-11T13:37:46;41.00;48.20
20712;DHT22;10517;50.742;4.224;2022-08-11T13:40:15;40.50;47.70
20712;DHT22;10517;50.742;4.224;2022-08-11T13:42:43;40.50;47.60
20712;DHT22;10517;50.742;4.224;2022-08-11T13:45:09;40.20;46.70
20712;DHT22;10517;50.742;4.224;2022-08-11T13:47:36;39.80;47.20
20712;DHT22;10517;50.742;4.224;2022-08-11T13:50:03;40.40;45.90
20712;DHT22;10517;50.742;4.224;2022-08-11T13:52:29;41.40;45.20
20712;DHT22;10517;50.742;4.224;2022-08-11T13:54:56;41.40;43.90
20712;DHT22;10517;50.742;4.224;2022-08-11T13:57:22;41.50;44.00
20712;DHT22;10517;50.742;4.224;2022-08-11T13:59:52;43.10;42.60
20712;DHT22;10517;50.742;4.224;2022-08-11T14:02:26;44.00;40.90
20712;DHT22;10517;50.742;4.224;2022-08-11T14:05:00;44.40;41.40
20712;DHT22;10517;50.742;4.224;2022-08-11T14:07:36;43.00;40.00
20712;DHT22;10517;50.742;4.224;2022-08-11T14:10:05;42.30;40.80
20712;DHT22;10517;50.742;4.224;2022-08-11T14:12:33;41.40;41.60
20712;DHT22;10517;50.742;4.224;2022-08-11T14:15:33;40.20;41.30
20712;DHT22;10517;50.742;4.224;2022-08-11T14:20:42;40.70;41.90
20712;DHT22;10517;50.742;4.224;2022-08-11T14:23:37;40.70;41.70
20712;DHT22;10517;50.742;4.224;2022-08-11T14:26:05;42.60;41.70
20712;DHT22;10517;50.742;4.224;2022-08-11T14:31:34;43.40;40.70
20712;DHT22;10517;50.742;4.224;2022-08-11T14:34:03;43.80;39.20
20712;DHT22;10517;50.742;4.224;2022-08-11T14:36:34;42.40;40.40
20712;DHT22;10517;50.742;4.224;2022-08-11T14:39:03;42.70;39.30
20712;DHT22;10517;50.742;4.224;2022-08-11T14:41:30;42.00;40.20
20712;DHT22;10517;50.742;4.224;2022-08-11T14:44:15;40.60;41.30
20712;DHT22;10517;50.742;4.224;2022-08-11T14:47:00;42.30;41.00
20712;DHT22;10517;50.742;4.224;2022-08-11T14:49:34;42.60;40.50
20712;DHT22;10517;50.742;4.224;2022-08-11T14:52:03;42.70;39.80
20712;DHT22;10517;50.742;4.224;2022-08-11T14:54:30;42.00;38.40
20712;DHT22;10517;50.742;4.224;2022-08-11T14:57:18;40.80;39.00
20712;DHT22;10517;50.742;4.224;2022-08-11T14:59:45;39.80;41.30
20712;DHT22;10517;50.742;4.224;2022-08-11T15:02:14;40.00;40.20
20712;DHT22;10517;50.742;4.224;2022-08-11T15:05:00;39.90;41.60
20712;DHT22;10517;50.742;4.224;2022-08-11T15:07:27;41.80;39.70
20712;DHT22;10517;50.742;4.224;2022-08-11T15:10:05;42.70;39.00
20712;DHT22;10517;50.742;4.224;2022-08-11T15:12:33;43.60;38.50
20712;DHT22;10517;50.742;4.224;2022-08-11T15:15:05;43.80;37.70
20712;DHT22;10517;50.742;4.224;2022-08-11T15:17:52;41.80;38.80
20712;DHT22;10517;50.742;4.224;2022-08-11T15:20:20;40.30;39.30
20712;DHT22;10517;50.742;4.224;2022-08-11T15:23:05;40.00;41.20
20712;DHT22;10517;50.742;4.224;2022-08-11T15:25:57;40.90;40.00
20712;DHT22;10517;50.742;4.224;2022-08-11T15:28:24;42.40;38.30
20712;DHT22;10517;50.742;4.224;2022-08-11T15:31:10;41.20;38.50
20712;DHT22;10517;50.742;4.224;2022-08-11T15:33:56;41.20;39.30
20712;DHT22;10517;50.742;4.224;2022-08-11T15:36:43;42.40;39.20
20712;DHT22;10517;50.742;4.224;2022-08-11T15:39:44;43.00;37.70
20712;DHT22;10517;50.742;4.224;2022-08-11T15:42:30;43.60;36.70
20712;DHT22;10517;50.742;4.224;2022-08-11T15:45:18;43.20;37.70
20712;DHT22;10517;50.742;4.224;2022-08-11T15:48:10;44.10;36.10
20712;DHT22;10517;50.742;4.224;2022-08-11T15:50:45;42.50;36.40
20712;DHT22;10517;50.742;4.224;2022-08-11T15:53:26;41.90;37.30
20712;DHT22;10517;50.742;4.224;2022-08-11T15:55:54;40.90;37.70
20712;DHT22;10517;50.742;4.224;2022-08-11T15:58:22;40.70;38.20
20712;DHT22;10517;50.742;4.224;2022-08-11T16:01:09;41.50;37.90
20712;DHT22;10517;50.742;4.224;2022-08-11T16:03:59;42.90;36.50
20712;DHT22;10517;50.742;4.224;2022-08-11T16:06:54;44.20;35.30
20712;DHT22;10517;50.742;4.224;2022-08-11T16:12:02;43.40;34.80
20712;DHT22;10517;50.742;4.224;2022-08-11T16:14:32;43.60;35.70
20712;DHT22;10517;50.742;4.224;2022-08-11T16:17:18;44.00;35.10
20712;DHT22;10517;50.742;4.224;2022-08-11T16:19:48;44.90;34.10
20712;DHT22;10517;50.742;4.224;2022-08-11T16:22:20;45.30;33.90
20712;DHT22;10517;50.742;4.224;2022-08-11T16:24:52;45.50;33.50
20712;DHT22;10517;50.742;4.224;2022-08-11T16:27:19;45.50;33.40
20712;DHT22;10517;50.742;4.224;2022-08-11T16:29:46;45.70;33.60
20712;DHT22;10517;50.742;4.224;2022-08-11T16:32:17;44.70;33.40
20712;DHT22;10517;50.742;4.224;2022-08-11T16:34:59;43.60;34.30
20712;DHT22;10517;50.742;4.224;2022-08-11T16:37:44;43.20;34.80
20712;DHT22;10517;50.742;4.224;2022-08-11T16:40:31;42.60;35.10
20712;DHT22;10517;50.742;4.224;2022-08-11T16:42:58;41.90;35.70
20712;DHT22;10517;50.742;4.224;2022-08-11T16:45:45;41.50;36.00
20712;DHT22;10517;50.742;4.224;2022-08-11T16:48:32;41.40;35.20
20712;DHT22;10517;50.742;4.224;2022-08-11T16:50:58;41.00;35.20
20712;DHT22;10517;50.742;4.224;2022-08-11T16:53:27;41.20;35.40
20712;DHT22;10517;50.742;4.224;2022-08-11T16:55:54;41.60;34.80
20712;DHT22;10517;50.742;4.224;2022-08-11T16:58:22;40.00;35.00
20712;DHT22;10517;50.742;4.224;2022-08-11T17:01:08;38.20;36.40
20712;DHT22;10517;50.742;4.224;2022-08-11T17:03:40;37.20;37.50
20712;DHT22;10517;50.742;4.224;2022-08-11T17:06:26;36.10;38.10
20712;DHT22;10517;50.742;4.224;2022-08-11T17:09:10;34.90;38.90
20712;DHT22;10517;50.742;4.224;2022-08-11T17:11:58;34.20;39.90
20712;DHT22;10517;50.742;4.224;2022-08-11T17:14:52;33.90;40.40
20712;DHT22;10517;50.742;4.224;2022-08-11T17:17:26;33.60;40.50
20712;DHT22;10517;50.742;4.224;2022-08-11T17:19:58;33.30;41.00
20712;DHT22;10517;50.742;4.224;2022-08-11T17:22:25;33.10;41.70
20712;DHT22;10517;50.742;4.224;2022-08-11T17:25:12;32.80;41.90
20712;DHT22;10517;50.742;4.224;2022-08-11T17:27:37;32.50;42.30
20712;DHT22;10517;50.742;4.224;2022-08-11T17:30:05;32.20;42.80
20712;DHT22;10517;50.742;4.224;2022-08-11T17:32:40;32.20;43.10
20712;DHT22;10517;50.742;4.224;2022-08-11T17:35:33;32.00;43.30
20712;DHT22;10517;50.742;4.224;2022-08-11T17:40:33;31.80;44.20
20712;DHT22;10517;50.742;4.224;2022-08-11T17:43:01;31.80;44.40
20712;DHT22;10517;50.742;4.224;2022-08-11T17:45:46;31.80;45.10
20712;DHT22;10517;50.742;4.224;2022-08-11T17:48:35;31.60;44.70
20712;DHT22;10517;50.742;4.224;2022-08-11T17:51:08;31.40;44.60
20712;DHT22;10517;50.742;4.224;2022-08-11T17:53:41;31.40;45.40
20712;DHT22;10517;50.742;4.224;2022-08-11T17:56:30;31.30;46.10
20712;DHT22;10517;50.742;4.224;2022-08-11T17:59:16;31.20;45.80
20712;DHT22;10517;50.742;4.224;2022-08-11T18:02:03;31.20;46.00
20712;DHT22;10517;50.742;4.224;2022-08-11T18:04:50;31.00;45.70
20712;DHT22;10517;50.742;4.224;2022-08-11T18:07:18;30.90;46.40
20712;DHT22;10517;50.742;4.224;2022-08-11T18:10:04;30.80;47.20
20712;DHT22;10517;50.742;4.224;2022-08-11T18:12:50;30.80;47.20
20712;DHT22;10517;50.742;4.224;2022-08-11T18:15:39;30.80;47.30
20712;DHT22;10517;50.742;4.224;2022-08-11T18:18:25;30.70;47.00
20712;DHT22;10517;50.742;4.224;2022-08-11T18:21:11;30.60;47.70
20712;DHT22;10517;50.742;4.224;2022-08-11T18:23:56;30.40;47.90
20712;DHT22;10517;50.742;4.224;2022-08-11T18:26:43;30.30;47.40
20712;DHT22;10517;50.742;4.224;2022-08-11T18:29:30;30.30;47.60
20712;DHT22;10517;50.742;4.224;2022-08-11T18:32:17;30.20;47.90
20712;DHT22;10517;50.742;4.224;2022-08-11T18:35:04;30.00;47.90
20712;DHT22;10517;50.742;4.224;2022-08-11T18:37:52;30.00;48.00
20712;DHT22;10517;50.742;4.224;2022-08-11T18:40:38;29.90;48.40
20712;DHT22;10517;50.742;4.224;2022-08-11T18:43:24;29.80;48.80
20712;DHT22;10517;50.742;4.224;2022-08-11T18:46:12;29.70;48.90
20712;DHT22;10517;50.742;4.224;2022-08-11T18:49:12;29.60;48.70
20712;DHT22;10517;50.742;4.224;2022-08-11T18:51:59;29.50;49.00
20712;DHT22;10517;50.742;4.224;2022-08-11T18:54:46;29.40;49.50
20712;DHT22;10517;50.742;4.224;2022-08-11T18:57:32;29.20;49.50
20712;DHT22;10517;50.742;4.224;2022-08-11T19:00:18;29.10;50.30
20712;DHT22;10517;50.742;4.224;2022-08-11T19:03:04;28.90;50.30
20712;DHT22;10517;50.742;4.224;2022-08-11T19:05:51;28.80;50.90
20712;DHT22;10517;50.742;4.224;2022-08-11T19:08:41;28.70;50.70
20712;DHT22;10517;50.742;4.224;2022-08-11T19:11:31;28.60;51.20
20712;DHT22;10517;50.742;4.224;2022-08-11T19:14:16;28.60;51.20
20712;DHT22;10517;50.742;4.224;2022-08-11T19:17:01;28.50;51.50
20712;DHT22;10517;50.742;4.224;2022-08-11T19:19:47;28.50;52.00
20712;DHT22;10517;50.742;4.224;2022-08-11T19:22:33;28.40;51.80
20712;DHT22;10517;50.742;4.224;2022-08-11T19:25:18;28.40;52.20
20712;DHT22;10517;50.742;4.224;2022-08-11T19:28:05;28.30;52.30
20712;DHT22;10517;50.742;4.224;2022-08-11T19:30:51;28.10;52.70
20712;DHT22;10517;50.742;4.224;2022-08-11T19:33:37;28.00;53.00
20712;DHT22;10517;50.742;4.224;2022-08-11T19:36:23;27.90;53.50
20712;DHT22;10517;50.742;4.224;2022-08-11T19:39:09;27.80;54.10
20712;DHT22;10517;50.742;4.224;2022-08-11T19:41:54;27.70;54.70
20712;DHT22;10517;50.742;4.224;2022-08-11T19:44:40;27.60;54.40
20712;DHT22;10517;50.742;4.224;2022-08-11T19:47:26;27.50;54.60
20712;DHT22;10517;50.742;4.224;2022-08-11T19:50:11;27.40;54.60
20712;DHT22;10517;50.742;4.224;2022-08-11T19:52:57;27.30;54.70
20712;DHT22;10517;50.742;4.224;2022-08-11T19:55:47;27.30;56.10
20712;DHT22;10517;50.742;4.224;2022-08-11T19:58:33;27.20;55.70
20712;DHT22;10517;50.742;4.224;2022-08-11T20:01:18;27.10;55.60
20712;DHT22;10517;50.742;4.224;2022-08-11T20:04:03;27.10;56.20
20712;DHT22;10517;50.742;4.224;2022-08-11T20:06:48;27.20;56.60